Time;durP1;ratioP1;P1;durP2;ratioP2;P2;SDS_P1;SDS_P2;PMS_P1;PMS_P2;Temp;Humidity;BMP_temperature;BMP_pressure;BME280_temperature;BME280_humidity;BME280_pressure;Samples;Min_cycle;Max_cycle;Signal;HPM_P1;HPM_P2
2022/04/23 00:00:26;;;;;;;;;10.00;8.50;;;25.21;96482.24;;;;116835;1196;25407;-56
2022/04/23 00:03:03;;;;;;;;;9.00;9.00;;;25.25;96471.73;;;;116893;1197;24825;-56
2022/04/23 00:05:32;;;;;;;;;7.25;6.25;;;25.29;96460.67;;;;116829;1196;26344;-56
2022/04/23 00:08:00;;;;;;;;;6.67;6.67;;;25.28;96455.79;;;;116810;1198;24989;-56
2022/04/23 00:10:27;;;;;;;;;9.00;8.50;;;25.27;96452.01;;;;116795;1197;24792;-57
2022/04/23 00:12:55;;;;;;;;;10.50;7.75;;;25.23;96454.29;;;;116745;1196;25040;-57
2022/04/23 00:15:25;;;;;;;;;5.75;4.75;;;25.21;96460.48;;;;116486;1197;25704;-57
2022/04/23 00:17:53;;;;;;;;;9.00;8.67;;;25.20;96464.02;;;;116795;1197;26167;-57
2022/04/23 00:20:23;;;;;;;;;8.00;6.33;;;25.20;96460.24;;;;116766;1197;25674;-58
2022/04/23 00:22:51;;;;;;;;;9.75;7.50;;;25.20;96462.32;;;;116804;1196;25490;-57
2022/04/23 00:25:19;;;;;;;;;8.67;8.67;;;25.20;96467.30;;;;116790;1198;24870;-57
2022/04/23 00:27:47;;;;;;;;;10.00;8.00;;;25.20;96467.36;;;;116740;1198;24961;-57
2022/04/23 00:30:15;;;;;;;;;7.33;6.33;;;25.18;96467.34;;;;116752;1196;25698;-57
2022/04/23 00:32:43;;;;;;;;;9.67;7.00;;;25.16;96464.17;;;;116752;1197;25009;-56
2022/04/23 00:35:15;;;;;;;;;8.00;7.00;;;25.17;96464.08;;;;116587;1196;25507;-57
2022/04/23 00:37:44;;;;;;;;;10.00;8.00;;;25.17;96466.36;;;;116649;1198;25983;-56
2022/04/23 00:40:18;;;;;;;;;9.50;7.50;;;25.19;96463.44;;;;116565;1197;24986;-56
2022/04/23 00:42:56;;;;;;;;;8.50;8.00;;;25.20;96463.61;;;;116547;1196;25615;-57
2022/04/23 00:45:27;;;;;;;;;10.67;9.00;;;25.21;96465.92;;;;116489;1197;25688;-58
2022/04/23 00:47:56;;;;;;;;;5.33;4.67;;;25.20;96463.95;;;;116538;1197;25709;-56
2022/04/23 00:50:24;;;;;;;;;10.33;10.33;;;25.20;96467.71;;;;116553;1198;25469;-58
2022/04/23 00:53:01;;;;;;;;;9.50;8.50;;;25.18;96467.33;;;;116470;1198;25110;-57
2022/04/23 00:55:32;;;;;;;;;9.50;7.75;;;25.21;96470.72;;;;116480;1197;25676;-57
2022/04/23 00:58:00;;;;;;;;;13.00;9.67;;;25.22;96468.67;;;;116788;1197;25091;-57
2022/04/23 01:00:28;;;;;;;;;7.00;7.00;;;25.22;96468.16;;;;116495;1198;25346;-57
2022/04/23 01:02:56;;;;;;;;;10.00;8.00;;;25.19;96468.23;;;;116809;1197;25149;-57
2022/04/23 01:05:24;;;;;;;;;7.00;5.50;;;25.19;96466.52;;;;116787;1196;24807;-57
2022/04/23 01:07:53;;;;;;;;;6.00;6.00;;;25.17;96476.08;;;;116459;1198;25332;-57
2022/04/23 01:10:21;;;;;;;;;7.67;7.67;;;25.17;96481.89;;;;116807;1196;25247;-57
2022/04/23 01:12:49;;;;;;;;;7.75;7.50;;;25.16;96475.08;;;;116753;1198;25383;-57
2022/04/23 01:15:17;;;;;;;;;8.50;8.50;;;25.15;96469.23;;;;116724;1198;25278;-57
2022/04/23 01:17:47;;;;;;;;;9.00;9.00;;;25.14;96465.58;;;;116751;1196;25457;-57
2022/04/23 01:20:16;;;;;;;;;9.33;7.33;;;25.14;96462.67;;;;116778;1198;25782;-57
2022/04/23 01:22:44;;;;;;;;;9.50;9.25;;;25.14;96457.44;;;;116722;1196;25024;-58
2022/04/23 01:25:14;;;;;;;;;8.67;7.67;;;25.14;96454.85;;;;116759;1196;25382;-57
2022/04/23 01:27:45;;;;;;;;;8.33;8.33;;;25.14;96443.05;;;;116771;1197;24964;-56
2022/04/23 01:30:13;;;;;;;;;9.50;8.00;;;25.15;96436.73;;;;116781;1197;26481;-57
2022/04/23 01:32:41;;;;;;;;;6.33;6.33;;;25.16;96430.44;;;;116755;1196;25376;-56
2022/04/23 01:35:09;;;;;;;;;9.00;7.50;;;25.14;96424.38;;;;116415;1198;25279;-57
2022/04/23 01:37:37;;;;;;;;;9.00;7.50;;;25.13;96425.67;;;;116738;1197;25356;-57
2022/04/23 01:40:06;;;;;;;;;7.33;7.33;;;25.12;96428.66;;;;116742;1196;25203;-57
2022/04/23 01:42:33;;;;;;;;;7.67;5.67;;;25.11;96437.10;;;;116533;1198;25475;-59
2022/04/23 01:45:01;;;;;;;;;10.25;9.75;;;25.14;96441.77;;;;116476;1199;24855;-57
2022/04/23 01:47:29;;;;;;;;;10.50;8.00;;;25.15;96445.27;;;;116689;1198;25196;-57
2022/04/23 01:49:57;;;;;;;;;9.00;7.25;;;25.14;96443.05;;;;116558;1197;25018;-57
2022/04/23 01:52:25;;;;;;;;;6.50;6.50;;;25.16;96441.25;;;;116418;1197;25160;-57
2022/04/23 01:54:53;;;;;;;;;9.00;7.00;;;25.15;96441.35;;;;116437;1197;25089;-57
2022/04/23 01:57:21;;;;;;;;;9.00;7.67;;;25.14;96440.23;;;;116450;1199;25355;-57
2022/04/23 01:59:49;;;;;;;;;8.50;8.50;;;25.16;96439.23;;;;116436;1199;25290;-57
2022/04/23 02:02:17;;;;;;;;;9.50;8.75;;;25.16;96441.49;;;;116344;1199;25633;-57
2022/04/23 02:04:45;;;;;;;;;7.00;7.00;;;25.13;96444.48;;;;116451;1199;25492;-57
2022/04/23 02:07:13;;;;;;;;;11.00;8.67;;;25.13;96445.63;;;;116447;1199;24950;-58
2022/04/23 02:09:41;;;;;;;;;10.00;9.00;;;25.13;96442.53;;;;116777;1196;25043;-56
2022/04/23 02:12:09;;;;;;;;;6.33;6.00;;;25.14;96437.52;;;;116793;1197;25184;-57
2022/04/23 02:14:37;;;;;;;;;7.67;7.67;;;25.13;96434.84;;;;116827;1197;24903;-57
2022/04/23 02:17:05;;;;;;;;;8.50;7.75;;;25.13;96437.59;;;;116765;1197;24820;-57
2022/04/23 02:19:33;;;;;;;;;7.50;5.50;;;25.12;96439.39;;;;116814;1196;25802;-57
2022/04/23 02:22:01;;;;;;;;;9.67;9.67;;;25.12;96443.33;;;;116769;1197;25709;-57
2022/04/23 02:24:30;;;;;;;;;7.75;7.75;;;25.12;96444.27;;;;116764;1197;25525;-58
2022/04/23 02:26:58;;;;;;;;;12.25;9.25;;;25.11;96445.83;;;;116865;1196;25478;-57
2022/04/23 02:29:26;;;;;;;;;9.50;7.00;;;25.11;96446.39;;;;116749;1197;25160;-57
2022/04/23 02:31:54;;;;;;;;;9.67;8.33;;;25.11;96451.29;;;;116795;1197;24774;-57
2022/04/23 02:34:21;;;;;;;;;8.00;8.00;;;25.11;96452.11;;;;116737;1196;25802;-57
2022/04/23 02:36:49;;;;;;;;;8.00;5.25;;;25.09;96453.55;;;;116478;1198;25294;-57
2022/04/23 02:39:17;;;;;;;;;9.33;9.33;;;25.11;96453.33;;;;116819;1197;25554;-57
2022/04/23 02:41:45;;;;;;;;;9.33;7.33;;;25.10;96454.72;;;;116728;1196;25103;-56
2022/04/23 02:44:15;;;;;;;;;11.00;10.00;;;25.09;96454.02;;;;116789;1196;25296;-57
2022/04/23 02:46:45;;;;;;;;;11.25;9.25;;;25.10;96451.95;;;;116806;1197;24828;-58
2022/04/23 02:49:14;;;;;;;;;7.50;7.50;;;25.10;96452.88;;;;116858;1197;24790;-57
2022/04/23 02:51:42;;;;;;;;;9.00;9.00;;;25.13;96450.33;;;;116775;1197;24939;-57
2022/04/23 02:54:12;;;;;;;;;6.67;6.67;;;25.12;96448.58;;;;116802;1196;25310;-57
2022/04/23 02:56:40;;;;;;;;;6.00;5.00;;;25.12;96448.95;;;;116809;1198;25330;-58
2022/04/23 02:59:08;;;;;;;;;9.00;8.00;;;25.11;96447.80;;;;116836;1196;24928;-57
2022/04/23 03:01:36;;;;;;;;;7.50;6.50;;;25.12;96451.19;;;;116778;1197;25643;-57
2022/04/23 03:04:05;;;;;;;;;8.75;7.75;;;25.10;96445.98;;;;116820;1197;25543;-57
2022/04/23 03:06:33;;;;;;;;;8.00;8.00;;;25.11;96451.10;;;;116746;1197;25346;-57
2022/04/23 03:09:03;;;;;;;;;7.67;7.00;;;25.10;96453.05;;;;116791;1196;25743;-57
2022/04/23 03:11:31;;;;;;;;;7.33;7.33;;;25.10;96456.98;;;;116824;1196;25952;-56
2022/04/23 03:13:59;;;;;;;;;9.50;7.50;;;25.11;96452.38;;;;116764;1198;25324;-57
2022/04/23 03:16:27;;;;;;;;;6.00;6.00;;;25.09;96450.47;;;;116802;1196;25131;-57
2022/04/23 03:18:56;;;;;;;;;8.67;6.67;;;25.11;96446.66;;;;116770;1196;25092;-56
2022/04/23 03:21:25;;;;;;;;;9.50;9.00;;;25.12;96448.36;;;;116406;1199;25000;-57
2022/04/23 03:23:53;;;;;;;;;8.67;8.67;;;25.11;96448.73;;;;116477;1197;24904;-56
2022/04/23 03:26:21;;;;;;;;;8.00;8.00;;;25.10;96447.88;;;;116468;1198;25190;-57
2022/04/23 03:28:48;;;;;;;;;9.00;7.00;;;25.10;96446.41;;;;116376;1199;24844;-57
2022/04/23 03:31:16;;;;;;;;;7.00;6.75;;;25.09;96448.43;;;;116322;1199;25597;-57
2022/04/23 03:33:45;;;;;;;;;9.00;8.67;;;25.08;96448.20;;;;116366;1199;25215;-55
2022/04/23 03:36:13;;;;;;;;;10.00;8.67;;;25.07;96452.08;;;;116694;1196;25111;-57
2022/04/23 03:38:43;;;;;;;;;11.00;9.00;;;25.07;96451.20;;;;116459;1198;25791;-57
2022/04/23 03:41:11;;;;;;;;;7.75;7.75;;;25.09;96452.26;;;;116860;1197;25015;-58
2022/04/23 03:43:39;;;;;;;;;7.67;7.00;;;25.10;96450.17;;;;116417;1198;25251;-57
2022/04/23 03:46:07;;;;;;;;;6.00;6.00;;;25.08;96448.88;;;;116685;1198;25828;-56
2022/04/23 03:48:34;;;;;;;;;8.67;7.33;;;25.08;96449.89;;;;116596;1196;25458;-56
2022/04/23 03:51:02;;;;;;;;;8.00;8.00;;;25.10;96451.55;;;;116622;1196;24992;-57
2022/04/23 03:53:30;;;;;;;;;7.00;6.33;;;25.11;96453.92;;;;116537;1197;25727;-58
2022/04/23 03:55:58;;;;;;;;;12.00;8.33;;;25.11;96452.66;;;;116534;1198;25071;-58
2022/04/23 03:58:28;;;;;;;;;9.00;8.00;;;25.09;96454.52;;;;116758;1196;25582;-59
2022/04/23 04:00:56;;;;;;;;;7.75;7.25;;;25.09;96455.71;;;;116916;1196;25557;-57
2022/04/23 04:03:24;;;;;;;;;11.00;7.33;;;25.14;96455.11;;;;116783;1196;25687;-57
2022/04/23 04:05:52;;;;;;;;;10.00;8.33;;;25.13;96456.46;;;;116710;1197;25146;-56
2022/04/23 04:08:20;;;;;;;;;10.67;8.33;;;25.14;96456.47;;;;116602;1197;25295;-56
2022/04/23 04:10:48;;;;;;;;;10.67;6.33;;;25.13;96457.17;;;;116771;1197;24990;-56
2022/04/23 04:13:16;;;;;;;;;11.67;10.67;;;25.11;96455.55;;;;116782;1196;24978;-56
2022/04/23 04:15:45;;;;;;;;;6.00;6.00;;;25.11;96452.60;;;;116465;1198;25408;-57
2022/04/23 04:18:13;;;;;;;;;8.50;8.00;;;25.10;96450.99;;;;116571;1198;25772;-57
2022/04/23 04:20:41;;;;;;;;;8.00;8.00;;;25.11;96453.02;;;;116806;1197;25076;-56
2022/04/23 04:23:09;;;;;;;;;10.00;9.00;;;25.11;96454.95;;;;116587;1198;25161;-56
2022/04/23 04:25:37;;;;;;;;;12.67;9.33;;;25.12;96456.05;;;;116426;1199;26202;-56
2022/04/23 04:28:05;;;;;;;;;8.00;7.25;;;25.10;96456.76;;;;116744;1197;25249;-56
2022/04/23 04:31:47;;;;;;;;;9.33;7.67;;;25.08;96456.83;;;;116826;1197;25278;-57
2022/04/23 04:33:22;;;;;;;;;5.75;5.75;;;25.17;96462.19;;;;116775;1198;25698;-56
2022/04/23 04:35:50;;;;;;;;;7.00;6.67;;;25.18;96459.75;;;;116781;1197;25235;-57
2022/04/23 04:38:22;;;;;;;;;5.00;4.33;;;25.15;96462.48;;;;116815;1197;25224;-57
2022/04/23 04:40:50;;;;;;;;;12.25;8.50;;;25.16;96463.98;;;;116470;1196;25127;-57
2022/04/23 04:43:18;;;;;;;;;7.67;7.00;;;25.13;96465.86;;;;116797;1197;25074;-56
2022/04/23 04:45:46;;;;;;;;;7.00;7.00;;;25.11;96463.05;;;;116370;1199;25417;-57
2022/04/23 04:48:15;;;;;;;;;8.75;7.50;;;25.09;96465.13;;;;116802;1197;25047;-57
2022/04/23 04:50:43;;;;;;;;;7.33;7.33;;;25.10;96462.88;;;;116785;1196;24981;-56
2022/04/23 04:53:11;;;;;;;;;9.00;8.75;;;25.09;96469.21;;;;116779;1197;24957;-56
2022/04/23 04:55:40;;;;;;;;;8.50;7.50;;;25.09;96471.48;;;;116492;1198;25063;-56
2022/04/23 04:58:07;;;;;;;;;8.33;7.67;;;25.08;96472.73;;;;116796;1198;24951;-57
2022/04/23 05:00:35;;;;;;;;;10.67;8.67;;;25.07;96473.64;;;;116444;1199;25007;-57
2022/04/23 05:03:03;;;;;;;;;7.67;7.00;;;25.06;96474.22;;;;116404;1199;25391;-56
2022/04/23 05:05:32;;;;;;;;;7.00;6.50;;;25.06;96476.04;;;;116453;1196;25145;-56
2022/04/23 05:08:00;;;;;;;;;11.00;8.00;;;25.07;96476.56;;;;116681;1196;25187;-56
2022/04/23 05:10:27;;;;;;;;;7.50;7.50;;;25.08;96477.74;;;;116677;1196;25184;-56
2022/04/23 05:12:55;;;;;;;;;7.33;6.33;;;25.07;96479.84;;;;116533;1196;25614;-56
2022/04/23 05:15:23;;;;;;;;;8.00;6.00;;;25.07;96479.67;;;;116538;1197;24844;-57
2022/04/23 05:17:51;;;;;;;;;9.00;7.33;;;25.07;96481.25;;;;116525;1197;24981;-57
2022/04/23 05:20:19;;;;;;;;;8.33;6.67;;;25.05;96480.76;;;;116564;1196;25605;-57
2022/04/23 05:22:46;;;;;;;;;8.00;7.00;;;25.06;96479.86;;;;116592;1198;24889;-55
2022/04/23 05:25:14;;;;;;;;;8.00;7.00;;;25.06;96481.20;;;;116732;1197;25323;-56
2022/04/23 05:27:42;;;;;;;;;9.00;8.67;;;25.06;96484.84;;;;116527;1198;25628;-56
2022/04/23 05:30:10;;;;;;;;;5.67;4.00;;;25.08;96484.45;;;;116837;1197;25090;-57
2022/04/23 05:32:38;;;;;;;;;7.00;5.33;;;25.09;96485.39;;;;116820;1196;25692;-57
2022/04/23 05:35:11;;;;;;;;;9.75;8.50;;;25.11;96486.91;;;;116806;1197;25399;-57
2022/04/23 05:37:40;;;;;;;;;11.00;8.00;;;25.12;96486.89;;;;116775;1196;25166;-57
2022/04/23 05:40:08;;;;;;;;;9.00;6.00;;;25.12;96487.94;;;;116780;1197;25204;-57
2022/04/23 05:42:36;;;;;;;;;8.00;7.00;;;25.12;96488.77;;;;116780;1197;24836;-57
2022/04/23 05:45:05;;;;;;;;;6.00;5.00;;;25.10;96488.94;;;;116756;1197;25540;-57
2022/04/23 05:47:32;;;;;;;;;9.00;6.33;;;25.11;96490.92;;;;116779;1197;25123;-56
2022/04/23 05:50:00;;;;;;;;;7.33;5.67;;;25.10;96501.14;;;;116791;1197;25718;-56
2022/04/23 05:52:28;;;;;;;;;11.75;6.50;;;25.10;96503.86;;;;116837;1198;25443;-55
2022/04/23 05:54:56;;;;;;;;;10.33;8.67;;;25.12;96505.77;;;;116744;1197;25421;-56
2022/04/23 05:57:24;;;;;;;;;8.33;6.67;;;25.09;96507.98;;;;116741;1197;24923;-57
2022/04/23 05:59:52;;;;;;;;;8.00;8.00;;;25.10;96508.09;;;;116756;1198;24937;-57
2022/04/23 06:02:20;;;;;;;;;9.00;6.00;;;25.09;96510.23;;;;116799;1196;26340;-56
2022/04/23 06:04:49;;;;;;;;;8.00;8.00;;;25.10;96509.84;;;;116760;1196;25232;-55
2022/04/23 06:07:17;;;;;;;;;8.00;7.00;;;25.10;96512.36;;;;116520;1198;26347;-55
2022/04/23 06:09:45;;;;;;;;;6.25;4.00;;;25.10;96518.20;;;;116780;1196;25723;-55
2022/04/23 06:12:13;;;;;;;;;8.00;6.67;;;25.11;96518.98;;;;116530;1196;25902;-55
2022/04/23 06:14:41;;;;;;;;;7.67;6.33;;;25.13;96523.34;;;;116785;1197;25474;-56
2022/04/23 06:17:11;;;;;;;;;7.50;6.00;;;25.14;96523.36;;;;116568;1197;25529;-56
2022/04/23 06:19:39;;;;;;;;;6.00;4.67;;;25.13;96522.11;;;;116597;1197;25722;-55
2022/04/23 06:22:08;;;;;;;;;7.67;7.67;;;25.13;96522.89;;;;116490;1197;24863;-56
2022/04/23 06:24:35;;;;;;;;;7.33;7.33;;;25.15;96522.99;;;;116615;1196;25589;-56
2022/04/23 06:27:04;;;;;;;;;7.50;6.00;;;25.16;96525.66;;;;116475;1198;25301;-53
2022/04/23 06:29:40;;;;;;;;;8.33;8.00;;;25.19;96524.15;;;;116490;1198;25720;-55
2022/04/23 06:32:10;;;;;;;;;9.25;6.00;;;25.20;96526.77;;;;116805;1197;25140;-56
2022/04/23 06:34:39;;;;;;;;;5.00;3.67;;;25.20;96535.99;;;;116814;1197;24907;-57
2022/04/23 06:37:08;;;;;;;;;6.00;6.00;;;25.20;96538.23;;;;116766;1197;24897;-56
2022/04/23 06:39:36;;;;;;;;;5.50;5.00;;;25.18;96542.99;;;;116765;1198;25211;-56
2022/04/23 06:42:05;;;;;;;;;8.50;5.50;;;25.18;96545.48;;;;116760;1197;24735;-56
2022/04/23 06:44:33;;;;;;;;;6.00;6.00;;;25.17;96547.02;;;;116580;1197;25389;-55
2022/04/23 06:47:02;;;;;;;;;6.50;5.75;;;25.16;96548.05;;;;116561;1197;25152;-56
2022/04/23 06:49:30;;;;;;;;;7.50;6.50;;;25.17;96550.42;;;;116768;1198;25613;-62
2022/04/23 06:51:57;;;;;;;;;7.00;7.00;;;25.17;96551.59;;;;116756;1198;24816;-57
2022/04/23 06:54:25;;;;;;;;;6.00;5.00;;;25.14;96553.61;;;;116685;1197;25087;-56
2022/04/23 06:56:53;;;;;;;;;7.67;7.00;;;25.15;96557.09;;;;116766;1197;25060;-57
2022/04/23 06:59:21;;;;;;;;;9.33;8.00;;;25.13;96560.29;;;;116749;1197;24887;-56
2022/04/23 07:01:49;;;;;;;;;7.67;7.00;;;25.13;96563.71;;;;116742;1198;24820;-55
2022/04/23 07:04:17;;;;;;;;;7.33;7.00;;;25.11;96567.91;;;;116419;1197;25175;-55
2022/04/23 07:06:45;;;;;;;;;11.33;6.67;;;25.11;96570.52;;;;116377;1200;24940;-56
2022/04/23 07:09:13;;;;;;;;;4.50;4.00;;;25.11;96572.28;;;;116483;1198;25170;-56
2022/04/23 07:11:41;;;;;;;;;7.33;7.00;;;25.12;96570.48;;;;116805;1198;25726;-56
2022/04/23 07:14:09;;;;;;;;;7.33;6.67;;;25.13;96570.15;;;;116780;1197;26060;-56
2022/04/23 07:16:36;;;;;;;;;7.00;6.00;;;25.13;96573.42;;;;116793;1196;25556;-56
2022/04/23 07:19:07;;;;;;;;;4.50;4.50;;;25.14;96574.14;;;;116761;1197;25520;-57
2022/04/23 07:21:34;;;;;;;;;5.33;5.00;;;25.13;96573.95;;;;116757;1197;25655;-56
2022/04/23 07:24:03;;;;;;;;;5.75;4.75;;;25.13;96576.69;;;;116743;1198;25466;-56
2022/04/23 07:26:34;;;;;;;;;8.00;7.00;;;25.11;96577.17;;;;116514;1196;25553;-56
2022/04/23 07:29:07;;;;;;;;;6.00;6.00;;;25.11;96577.37;;;;116803;1198;25092;-56
2022/04/23 07:31:36;;;;;;;;;3.33;3.33;;;25.13;96578.22;;;;116792;1197;25225;-55
2022/04/23 07:39:37;;;;;;;;;6.00;5.33;;;25.13;96589.73;;;;116794;1196;25206;-56
2022/04/23 07:42:06;;;;;;;;;6.67;6.67;;;25.11;96591.54;;;;116770;1197;25340;-56
2022/04/23 07:44:34;;;;;;;;;5.67;4.67;;;25.11;96594.08;;;;116801;1196;25017;-56
2022/04/23 07:47:04;;;;;;;;;6.00;6.00;;;25.12;96597.63;;;;116782;1198;25280;-57
2022/04/23 07:49:32;;;;;;;;;6.00;6.00;;;25.12;96603.08;;;;116800;1197;24976;-57
2022/04/23 07:52:01;;;;;;;;;7.00;6.00;;;25.14;96604.36;;;;116746;1197;24782;-56
2022/04/23 07:54:28;;;;;;;;;6.00;6.00;;;25.13;96604.38;;;;116831;1196;24734;-56
2022/04/23 07:56:56;;;;;;;;;5.00;5.00;;;25.15;96605.25;;;;116798;1198;27018;-55
2022/04/23 07:59:24;;;;;;;;;5.00;4.75;;;25.15;96606.46;;;;116572;1196;25739;-55
2022/04/23 08:01:52;;;;;;;;;5.50;4.50;;;25.15;96607.64;;;;116550;1197;25062;-55
2022/04/23 08:04:20;;;;;;;;;4.33;4.33;;;25.16;96603.82;;;;116492;1196;25161;-56
2022/04/23 08:06:48;;;;;;;;;9.00;7.67;;;25.16;96604.63;;;;116547;1196;25586;-55
2022/04/23 08:09:16;;;;;;;;;5.50;5.50;;;25.16;96604.20;;;;116718;1196;25157;-56
2022/04/23 08:11:44;;;;;;;;;6.75;6.25;;;25.17;96606.59;;;;116742;1196;25799;-55
2022/04/23 08:14:12;;;;;;;;;6.00;6.00;;;25.16;96606.02;;;;116765;1198;24863;-56
2022/04/23 08:16:41;;;;;;;;;7.00;6.75;;;25.16;96607.22;;;;116764;1197;25032;-57
2022/04/23 08:19:09;;;;;;;;;5.33;5.33;;;25.16;96611.05;;;;116748;1198;25525;-56
2022/04/23 08:21:37;;;;;;;;;5.33;3.33;;;25.17;96610.77;;;;116757;1197;25881;-58
2022/04/23 08:24:05;;;;;;;;;7.50;6.00;;;25.18;96613.23;;;;116796;1197;24981;-57
2022/04/23 08:26:33;;;;;;;;;3.50;3.50;;;25.20;96613.66;;;;116784;1198;25399;-56
2022/04/23 08:31:47;;;;;;;;;5.50;5.50;;;25.22;96621.59;;;;116773;1197;25210;-56
2022/04/23 08:34:16;;;;;;;;;6.67;6.67;;;25.22;96622.91;;;;116756;1198;25044;-56
2022/04/23 08:36:44;;;;;;;;;8.33;8.00;;;25.24;96622.00;;;;116787;1196;25108;-56
2022/04/23 08:39:12;;;;;;;;;4.33;3.33;;;25.25;96622.13;;;;116811;1196;24793;-57
2022/04/23 08:41:40;;;;;;;;;7.67;6.00;;;25.28;96625.19;;;;116786;1196;25540;-56
2022/04/23 08:44:08;;;;;;;;;6.00;6.00;;;25.28;96625.94;;;;116828;1196;25715;-56
2022/04/23 08:46:38;;;;;;;;;5.00;5.00;;;25.30;96630.13;;;;116755;1198;25413;-57
2022/04/23 08:49:08;;;;;;;;;6.00;6.00;;;25.31;96628.87;;;;116817;1197;24877;-56
2022/04/23 08:51:38;;;;;;;;;6.75;5.75;;;25.33;96628.31;;;;116776;1197;25019;-55
2022/04/23 08:54:09;;;;;;;;;6.00;5.50;;;25.34;96627.17;;;;116762;1197;25451;-56
2022/04/23 08:56:39;;;;;;;;;6.00;6.00;;;25.35;96624.45;;;;116778;1197;25247;-55
2022/04/23 08:59:11;;;;;;;;;5.67;5.00;;;25.36;96626.55;;;;116769;1196;25553;-56
2022/04/23 09:01:44;;;;;;;;;5.75;5.25;;;25.38;96628.84;;;;116776;1196;25252;-57
2022/04/23 09:04:13;;;;;;;;;6.00;4.50;;;25.40;96629.77;;;;116539;1198;25504;-56
2022/04/23 09:06:43;;;;;;;;;8.67;6.67;;;25.38;96630.83;;;;116738;1197;25677;-55
2022/04/23 09:09:15;;;;;;;;;7.67;6.33;;;25.39;96627.89;;;;116756;1197;24865;-55
2022/04/23 09:11:50;;;;;;;;;10.75;8.00;;;25.38;96632.08;;;;116767;1197;24756;-56
2022/04/23 09:14:33;;;;;;;;;6.50;6.00;;;25.39;96631.30;;;;116803;1197;26180;-55
2022/04/23 09:25:36;;;;;;;;;8.33;8.33;;;25.44;96637.02;;;;116765;1197;25693;-56
2022/04/23 09:28:17;;;;;;;;;8.25;6.50;;;25.42;96633.66;;;;116752;1196;24878;-57
2022/04/23 09:30:49;;;;;;;;;7.00;5.67;;;25.44;96632.23;;;;116837;1196;24999;-57
2022/04/23 09:33:18;;;;;;;;;7.25;6.00;;;25.45;96630.45;;;;116764;1197;25274;-56
2022/04/23 09:35:52;;;;;;;;;6.25;6.25;;;25.44;96628.02;;;;116851;1198;25483;-56
2022/04/23 09:38:21;;;;;;;;;6.25;5.50;;;25.44;96622.61;;;;116794;1198;25510;-56
2022/04/23 09:40:51;;;;;;;;;7.50;7.00;;;25.45;96625.82;;;;116489;1198;25371;-56
2022/04/23 09:43:28;;;;;;;;;6.00;4.00;;;25.43;96625.19;;;;116781;1196;24865;-56
2022/04/23 09:46:08;;;;;;;;;5.50;5.25;;;25.44;96628.33;;;;116842;1197;24834;-56
2022/04/23 09:48:43;;;;;;;;;7.67;5.67;;;25.47;96627.20;;;;116774;1196;25654;-56
2022/04/23 09:51:21;;;;;;;;;5.75;5.50;;;25.48;96625.71;;;;116791;1197;25073;-56
2022/04/23 09:53:50;;;;;;;;;7.33;7.00;;;25.47;96626.67;;;;116808;1196;25013;-55
2022/04/23 09:56:21;;;;;;;;;7.00;7.00;;;25.47;96622.14;;;;116778;1196;24881;-56
2022/04/23 09:58:50;;;;;;;;;7.00;7.00;;;25.47;96627.11;;;;116793;1196;25377;-56
2022/04/23 10:01:20;;;;;;;;;4.75;4.75;;;25.47;96629.14;;;;116761;1198;24816;-56
2022/04/23 10:03:53;;;;;;;;;3.67;3.00;;;25.45;96628.20;;;;116794;1198;25876;-56
2022/04/23 10:06:23;;;;;;;;;6.00;5.00;;;25.46;96626.31;;;;116770;1196;25529;-55
2022/04/23 10:08:55;;;;;;;;;5.00;4.67;;;25.46;96626.20;;;;116804;1197;24811;-56
2022/04/23 10:11:26;;;;;;;;;5.33;5.33;;;25.48;96623.60;;;;116537;1197;25461;-57
2022/04/23 10:14:10;;;;;;;;;4.50;4.50;;;25.50;96619.70;;;;116770;1198;25539;-56
2022/04/23 10:16:38;;;;;;;;;7.00;6.00;;;25.54;96616.14;;;;116720;1197;25196;-57
2022/04/23 10:19:08;;;;;;;;;6.33;4.00;;;25.54;96617.95;;;;116805;1197;25586;-58
2022/04/23 10:22:03;;;;;;;;;4.50;4.50;;;25.52;96619.23;;;;116457;1198;25231;-57
2022/04/23 10:25:17;;;;;;;;;6.00;4.33;;;25.51;96617.81;;;;116738;1196;25776;-57
2022/04/23 10:27:45;;;;;;;;;7.25;5.75;;;25.60;96617.89;;;;116738;1198;25068;-57
2022/04/23 10:30:14;;;;;;;;;7.00;4.00;;;25.59;96616.15;;;;116769;1197;25056;-56
2022/04/23 10:32:43;;;;;;;;;5.00;5.00;;;25.55;96615.64;;;;116501;1196;24857;-55
2022/04/23 10:35:16;;;;;;;;;7.25;7.00;;;25.53;96611.31;;;;116870;1196;25351;-55
2022/04/23 10:37:48;;;;;;;;;6.25;5.50;;;25.54;96612.41;;;;116797;1197;26430;-56
2022/04/23 10:40:20;;;;;;;;;6.00;6.00;;;25.55;96613.90;;;;116793;1198;25402;-56
2022/04/23 10:43:08;;;;;;;;;5.00;5.00;;;25.55;96616.82;;;;116834;1197;24923;-57
2022/04/23 10:45:38;;;;;;;;;6.00;6.00;;;25.55;96624.23;;;;116542;1198;25725;-56
2022/04/23 10:48:25;;;;;;;;;6.00;6.00;;;25.54;96622.61;;;;116810;1197;25489;-57
2022/04/23 10:51:19;;;;;;;;;4.25;3.25;;;25.55;96626.52;;;;116805;1198;25510;-57
2022/04/23 10:53:47;;;;;;;;;4.50;4.25;;;25.54;96623.02;;;;116790;1196;25814;-57
2022/04/23 10:56:17;;;;;;;;;4.50;3.50;;;25.53;96621.07;;;;116820;1196;24920;-56
2022/04/23 10:58:46;;;;;;;;;6.50;5.00;;;25.55;96620.70;;;;116604;1197;25397;-56
2022/04/23 11:01:25;;;;;;;;;8.00;5.00;;;25.59;96620.21;;;;116575;1196;25683;-56
2022/04/23 11:03:57;;;;;;;;;7.00;6.00;;;25.62;96619.92;;;;116319;1198;25551;-57
2022/04/23 11:12:55;;;;;;;;;5.00;3.67;;;25.88;96619.45;;;;116774;1197;25887;-57
2022/04/23 11:15:23;;;;;;;;;2.33;2.33;;;25.80;96622.80;;;;116881;1196;25452;-60
2022/04/23 11:17:53;;;;;;;;;6.00;5.50;;;25.78;96626.77;;;;116473;1199;25274;-56
2022/04/23 11:20:30;;;;;;;;;5.25;5.25;;;25.78;96625.55;;;;116400;1199;24770;-54
2022/04/23 11:23:00;;;;;;;;;4.00;4.00;;;25.78;96624.23;;;;116767;1197;25552;-56
2022/04/23 11:25:30;;;;;;;;;5.50;3.75;;;25.81;96627.55;;;;116876;1197;25073;-56
2022/04/23 11:28:12;;;;;;;;;6.00;6.00;;;25.80;96620.41;;;;116809;1197;25129;-57
2022/04/23 11:30:40;;;;;;;;;1.67;1.67;;;25.82;96622.79;;;;116799;1198;25489;-57
2022/04/23 11:33:09;;;;;;;;;6.00;6.00;;;25.80;96622.48;;;;116761;1196;25589;-56
2022/04/23 11:35:37;;;;;;;;;5.75;3.25;;;25.76;96627.60;;;;116514;1198;25084;-55
2022/04/23 11:38:05;;;;;;;;;3.75;3.75;;;25.73;96628.41;;;;116781;1198;24996;-56
2022/04/23 11:40:34;;;;;;;;;8.00;4.00;;;25.70;96625.54;;;;116483;1197;25725;-56
2022/04/23 11:43:02;;;;;;;;;3.75;3.75;;;25.69;96618.61;;;;116488;1198;24951;-57
2022/04/23 11:45:30;;;;;;;;;4.33;4.33;;;25.70;96614.69;;;;116485;1198;25424;-57
2022/04/23 11:47:58;;;;;;;;;5.00;5.00;;;25.71;96609.18;;;;116442;1196;25692;-56
2022/04/23 11:50:29;;;;;;;;;6.50;3.50;;;25.71;96610.39;;;;116784;1197;25442;-55
2022/04/23 11:52:59;;;;;;;;;7.67;4.67;;;25.71;96608.43;;;;116801;1196;24839;-56
2022/04/23 11:55:28;;;;;;;;;3.00;3.00;;;25.73;96612.70;;;;116737;1198;25289;-56
2022/04/23 11:58:07;;;;;;;;;4.33;4.33;;;25.73;96613.21;;;;116815;1197;26405;-56
2022/04/23 12:00:35;;;;;;;;;6.50;6.00;;;25.75;96613.14;;;;116778;1196;25261;-57
2022/04/23 12:03:03;;;;;;;;;4.00;4.00;;;25.79;96614.27;;;;116790;1197;25788;-56
2022/04/23 12:05:32;;;;;;;;;5.00;4.00;;;25.80;96613.58;;;;116841;1197;25694;-56
2022/04/23 12:08:01;;;;;;;;;2.75;2.75;;;25.83;96616.44;;;;116744;1198;26103;-57
2022/04/23 12:10:31;;;;;;;;;6.33;3.67;;;25.86;96616.35;;;;116446;1198;24898;-56
2022/04/23 12:13:08;;;;;;;;;4.33;4.33;;;25.88;96621.17;;;;116453;1198;25472;-55
2022/04/23 12:15:45;;;;;;;;;4.33;4.00;;;25.93;96625.98;;;;116483;1197;26211;-56
2022/04/23 12:18:21;;;;;;;;;4.00;4.00;;;25.94;96625.79;;;;116490;1199;25599;-56
2022/04/23 12:20:48;;;;;;;;;5.00;3.00;;;25.98;96625.05;;;;116461;1197;25286;-56
2022/04/23 12:23:19;;;;;;;;;5.00;3.00;;;25.97;96621.98;;;;116397;1199;25320;-56
2022/04/23 12:25:47;;;;;;;;;4.00;3.00;;;25.93;96622.98;;;;116428;1198;24903;-57
2022/04/23 12:42:46;;;;;;;;;5.50;5.00;;;25.84;96641.30;;;;116471;1198;25626;-56
2022/04/23 12:45:20;;;;;;;;;7.00;6.00;;;25.79;96641.80;;;;116450;1198;25572;-55
2022/04/23 12:47:48;;;;;;;;;3.00;3.00;;;25.75;96646.56;;;;116446;1197;25090;-56
2022/04/23 12:50:26;;;;;;;;;4.00;4.00;;;25.73;96649.35;;;;116442;1199;25088;-56
2022/04/23 12:52:54;;;;;;;;;3.67;3.00;;;25.74;96648.40;;;;116427;1198;24857;-56
2022/04/23 12:55:28;;;;;;;;;5.00;5.00;;;25.75;96648.66;;;;116454;1198;25499;-57